Time;durP1;ratioP1;P1;durP2;ratioP2;P2;SDS_P1;SDS_P2;PMS_P1;PMS_P2;Temp;Humidity;BMP_temperature;BMP_pressure;BME280_temperature;BME280_humidity;BME280_pressure;Samples;Min_cycle;Max_cycle;Signal;HPM_P1;HPM_P2
2022/11/29 00:01:01;;;;;;;79.57;32.25;;;;;;;14.55;100.00;101305.88;4986384;28;20289;-55
2022/11/29 00:03:28;;;;;;;77.40;32.10;;;;;;;14.45;100.00;101308.19;4988886;28;20039;-59
2022/11/29 00:05:54;;;;;;;100.68;32.25;;;;;;;14.54;100.00;101308.81;4987117;28;20062;-55
2022/11/29 00:08:20;;;;;;;;;;;;;;;14.37;100.00;101309.25;4990999;28;20049;-57
2022/11/29 00:10:46;;;;;;;121.47;35.93;;;;;;;14.38;100.00;101308.19;4991436;28;19968;-58
2022/11/29 00:13:12;;;;;;;112.60;33.70;;;;;;;14.27;100.00;101308.81;4991768;28;20296;-59
2022/11/29 00:15:38;;;;;;;100.93;33.15;;;;;;;14.61;100.00;101301.53;4991502;28;20039;-56
2022/11/29 00:18:05;;;;;;;93.50;33.72;;;;;;;14.26;100.00;101304.47;4986984;28;20094;-58
2022/11/29 00:20:31;;;;;;;100.57;32.63;;;;;;;14.33;100.00;101310.69;4987859;28;20036;-59
2022/11/29 00:22:56;;;;;;;102.50;33.00;;;;;;;14.31;100.00;101304.69;4990283;28;20277;-57
2022/11/29 00:25:22;;;;;;;96.97;37.10;;;;;;;14.13;100.00;101302.63;4989814;28;20055;-57
2022/11/29 00:27:50;;;;;;;98.30;33.78;;;;;;;14.16;100.00;101307.59;4987638;28;20031;-58
2022/11/29 00:30:15;;;;;;;100.83;35.27;;;;;;;14.10;100.00;101303.88;4991874;28;20035;-54
2022/11/29 00:32:41;;;;;;;87.15;34.50;;;;;;;13.79;100.00;101310.69;4986130;28;20349;-55
2022/11/29 00:35:07;;;;;;;105.20;35.10;;;;;;;13.87;100.00;101304.28;4991080;28;20038;-58
2022/11/29 00:37:33;;;;;;;96.63;33.25;;;;;;;13.96;100.00;101312.97;4990856;28;20034;-57
2022/11/29 00:39:58;;;;;;;95.72;35.85;;;;;;;13.82;100.00;101307.59;4988839;28;20047;-59
2022/11/29 00:42:24;;;;;;;84.47;33.50;;;;;;;13.90;100.00;101317.31;4984677;28;20038;-58
2022/11/29 00:44:49;;;;;;;89.67;31.20;;;;;;;14.46;100.00;101313.34;4990972;28;20264;-57
2022/11/29 00:47:16;;;;;;;163.15;35.97;;;;;;;13.87;100.00;101312.34;4991783;28;20037;-55
2022/11/29 00:49:41;;;;;;;111.43;34.97;;;;;;;13.82;100.00;101320.22;4989294;28;20019;-59
2022/11/29 00:52:07;;;;;;;100.43;35.25;;;;;;;13.97;100.00;101317.31;4987639;28;20047;-57
2022/11/29 00:54:33;;;;;;;107.70;33.90;;;;;;;14.28;100.00;101326.63;4991726;28;20035;-56
2022/11/29 00:56:58;;;;;;;93.83;32.90;;;;;;;13.98;100.00;101322.50;4992075;28;20065;-59
2022/11/29 00:59:24;;;;;;;99.15;32.47;;;;;;;14.15;100.00;101317.53;4989895;28;20043;-57
2022/11/29 01:01:49;;;;;;;98.53;34.45;;;;;;;14.08;100.00;101318.56;4989144;28;20039;-56
2022/11/29 01:04:15;;;;;;;85.17;32.37;;;;;;;13.98;100.00;101316.28;4989652;28;20062;-57
2022/11/29 01:06:41;;;;;;;91.28;35.67;;;;;;;13.98;100.00;101318.97;4976283;28;20051;-56
2022/11/29 01:09:07;;;;;;;91.45;34.08;;;;;;;13.87;100.00;101321.25;4987979;28;20062;-55
2022/11/29 01:11:32;;;;;;;95.57;32.17;;;;;;;14.19;100.00;101329.53;4979441;28;20042;-57
2022/11/29 01:14:00;;;;;;;86.55;32.90;;;;;;;14.20;100.00;101333.88;4985838;28;20062;-57
2022/11/29 01:16:28;;;;;;;79.87;30.60;;;;;;;14.23;100.00;101329.09;4987963;28;20031;-58
2022/11/29 01:18:55;;;;;;;79.10;29.33;;;;;;;14.13;100.00;101327.69;4989578;28;20269;-54
2022/11/29 01:21:23;;;;;;;80.35;31.08;;;;;;;14.21;100.00;101337.41;4985491;28;20361;-59
2022/11/29 01:23:51;;;;;;;81.23;29.33;;;;;;;14.32;100.00;101328.69;4982789;28;20054;-57
2022/11/29 01:26:21;;;;;;;88.27;31.03;;;;;;;14.29;100.00;101330.97;4985379;28;20320;-59
2022/11/29 01:28:48;;;;;;;80.43;30.10;;;;;;;13.95;100.00;101339.03;4989600;28;20269;-55
2022/11/29 01:31:18;;;;;;;79.17;30.27;;;;;;;13.86;100.00;101335.72;4984962;28;20265;-57
2022/11/29 01:33:43;;;;;;;82.77;32.33;;;;;;;13.90;100.00;101336.13;4996077;28;20269;-58
2022/11/29 01:36:12;;;;;;;128.50;32.65;;;;;;;14.16;100.00;101340.72;4987354;28;20304;-55
2022/11/29 01:38:38;;;;;;;79.70;32.90;;;;;;;13.98;100.00;101343.19;4992369;28;20069;-57
2022/11/29 01:41:11;;;;;;;98.38;30.90;;;;;;;13.80;100.00;101341.09;4989207;28;20277;-57
2022/11/29 01:44:12;;;;;;;93.37;31.17;;;;;;;13.98;100.00;101343.19;4982969;28;20038;-57
2022/11/29 01:46:40;;;;;;;132.37;33.43;;;;;;;13.73;100.00;101346.44;4893633;29;20343;-58
2022/11/29 01:49:31;;;;;;;87.33;30.67;;;;;;;13.75;100.00;101355.13;4966855;28;20277;-57
2022/11/29 01:52:10;;;;;;;107.00;32.57;;;;;;;14.13;100.00;101351.88;4984361;28;20296;-58
2022/11/29 01:54:44;;;;;;;286.43;37.13;;;;;;;14.08;100.00;101349.00;4985274;28;20314;-57
2022/11/29 01:57:10;;;;;;;224.73;33.43;;;;;;;13.72;100.00;101350.19;4987484;28;20332;-57
2022/11/29 01:59:42;;;;;;;211.05;33.92;;;;;;;13.75;100.00;101352.44;4982419;28;20280;-57
2022/11/29 02:02:12;;;;;;;221.27;33.40;;;;;;;14.04;100.00;101345.03;4989722;28;20034;-56
2022/11/29 02:04:40;;;;;;;220.97;34.13;;;;;;;13.99;100.00;101359.13;4988721;28;20302;-57
2022/11/29 02:07:06;;;;;;;191.47;32.17;;;;;;;13.62;100.00;101364.00;4992067;28;20288;-58
2022/11/29 02:09:32;;;;;;;257.02;37.03;;;;;;;13.93;100.00;101367.16;4984737;28;20283;-58
2022/11/29 02:12:24;;;;;;;209.35;35.03;;;;;;;13.90;100.00;101368.41;4987651;28;20068;-56
2022/11/29 02:15:04;;;;;;;253.50;36.00;;;;;;;13.70;100.00;101369.19;4991134;28;20031;-58
2022/11/29 02:17:55;;;;;;;267.30;35.70;;;;;;;13.72;100.00;101366.31;4991641;28;20364;-58
2022/11/29 02:20:40;;;;;;;305.47;40.30;;;;;;;13.49;100.00;101367.47;4977067;28;20300;-55
2022/11/29 02:23:22;;;;;;;306.33;42.33;;;;;;;13.41;100.00;101370.31;4983762;28;20285;-57
2022/11/29 02:26:15;;;;;;;186.70;34.17;;;;;;;13.74;100.00;101373.16;4984514;28;20266;-55
2022/11/29 02:29:14;;;;;;;185.73;34.77;;;;;;;13.59;100.00;101365.22;4981144;28;20270;-56
2022/11/29 02:31:57;;;;;;;279.00;38.83;;;;;;;13.68;100.00;101365.06;4988371;28;20288;-56
2022/11/29 02:34:32;;;;;;;293.87;36.93;;;;;;;13.84;100.00;101367.38;4985551;28;20269;-55
2022/11/29 02:37:25;;;;;;;143.70;31.23;;;;;;;14.49;100.00;101365.94;4989794;28;20308;-57
2022/11/29 02:40:05;;;;;;;245.93;37.60;;;;;;;14.10;100.00;101362.22;4990643;28;20288;-58
2022/11/29 02:42:47;;;;;;;166.70;33.10;;;;;;;14.04;100.00;101366.53;4985929;28;20345;-57
2022/11/29 02:45:21;;;;;;;219.17;35.93;;;;;;;13.55;100.00;101360.47;4986894;28;20265;-56
2022/11/29 02:48:02;;;;;;;206.83;34.47;;;;;;;13.72;100.00;101369.00;4992607;28;20412;-56
2022/11/29 02:50:40;;;;;;;98.97;31.57;;;;;;;13.60;100.00;101366.88;4977951;28;20299;-59
2022/11/29 02:53:28;;;;;;;93.50;29.83;;;;;;;13.84;100.00;101375.44;4985398;28;20275;-55
2022/11/29 02:56:21;;;;;;;93.43;31.63;;;;;;;13.77;100.00;101371.88;4995090;28;20281;-56
2022/11/29 02:59:18;;;;;;;90.87;31.10;;;;;;;13.82;100.00;101366.72;4986570;28;20037;-59
2022/11/29 03:02:08;;;;;;;105.83;32.13;;;;;;;13.75;100.00;101368.56;4981533;28;20276;-56
2022/11/29 03:04:41;;;;;;;84.33;30.80;;;;;;;13.96;100.00;101372.13;4994347;28;20296;-58
2022/11/29 03:07:40;;;;;;;81.20;30.53;;;;;;;13.96;100.00;101377.50;4994191;28;20269;-57
2022/11/29 03:10:38;;;;;;;82.37;32.47;;;;;;;13.66;100.00;101383.25;4987655;28;20288;-57
2022/11/29 03:13:10;;;;;;;73.32;30.33;;;;;;;13.61;100.00;101392.75;4992786;28;20273;-57
2022/11/29 03:15:56;;;;;;;84.73;29.33;;;;;;;13.73;100.00;101394.84;4989907;28;20051;-57
2022/11/29 03:18:33;;;;;;;81.53;30.27;;;;;;;13.86;100.00;101392.19;4989577;28;20277;-56
2022/11/29 03:21:11;;;;;;;79.43;30.38;;;;;;;14.20;100.00;101397.63;4990492;28;20304;-56
2022/11/29 03:23:44;;;;;;;85.37;31.97;;;;;;;14.05;100.00;101403.16;4982661;28;20038;-56
2022/11/29 03:26:16;;;;;;;98.63;31.30;;;;;;;14.12;100.00;101400.47;4985760;28;20273;-55
2022/11/29 03:28:52;;;;;;;87.43;30.07;;;;;;;14.12;100.00;101403.19;4986115;28;20265;-58
2022/11/29 03:31:30;;;;;;;98.10;31.97;;;;;;;13.94;100.00;101401.09;4984266;28;20294;-53
2022/11/29 03:34:13;;;;;;;103.27;30.73;;;;;;;13.99;100.00;101404.00;4988954;28;20280;-56
2022/11/29 03:36:51;;;;;;;98.30;32.07;;;;;;;13.88;100.00;101406.25;4988261;28;20269;-57
2022/11/29 03:39:23;;;;;;;106.03;33.73;;;;;;;13.89;100.00;101405.22;4993025;28;20294;-55
2022/11/29 03:41:57;;;;;;;113.47;32.30;;;;;;;13.84;100.00;101404.16;4989773;28;20303;-53
2022/11/29 03:44:27;;;;;;;101.53;34.83;;;;;;;13.99;100.00;101415.59;4989825;28;20274;-53
2022/11/29 03:47:03;;;;;;;90.03;32.20;;;;;;;13.86;100.00;101416.38;4991443;28;20292;-53
2022/11/29 03:49:43;;;;;;;106.73;34.10;;;;;;;13.89;100.00;101424.03;4989122;28;20272;-57
2022/11/29 03:52:20;;;;;;;100.13;34.33;;;;;;;13.89;100.00;101421.34;4987909;28;20273;-56
2022/11/29 03:55:05;;;;;;;113.00;33.95;;;;;;;13.54;100.00;101434.06;4991995;28;20291;-53
2022/11/29 03:58:03;;;;;;;96.53;32.67;;;;;;;13.27;100.00;101426.66;4992575;28;20050;-57
2022/11/29 04:00:43;;;;;;;101.78;31.17;;;;;;;13.37;100.00;101438.91;4993650;28;20293;-54
2022/11/29 04:03:37;;;;;;;106.80;31.83;;;;;;;13.72;100.00;101447.75;4984954;28;20035;-56
2022/11/29 04:06:18;;;;;;;105.50;32.70;;;;;;;13.69;100.00;101444.66;4987524;28;20267;-57
2022/11/29 04:08:55;;;;;;;128.83;33.27;;;;;;;13.65;100.00;101443.41;4989183;28;20332;-56
2022/11/29 04:11:33;;;;;;;104.57;32.10;;;;;;;13.50;100.00;101448.94;4988743;28;20280;-56
2022/11/29 04:14:21;;;;;;;108.37;30.77;;;;;;;13.15;100.00;101447.88;4980793;28;20280;-58
2022/11/29 04:16:57;;;;;;;;;;;;;;;13.24;100.00;101455.78;4985247;28;20291;-55
2022/11/29 04:19:44;;;;;;;192.60;31.90;;;;;;;13.55;100.00;101449.97;4993437;28;19914;-57
2022/11/29 04:23:06;;;;;;;168.02;30.73;;;;;;;13.51;100.00;101461.34;4983667;28;20356;-59
2022/11/29 04:25:57;;;;;;;151.20;33.83;;;;;;;13.22;100.00;101452.47;4989157;28;20041;-56
2022/11/29 04:28:47;;;;;;;229.30;37.70;;;;;;;13.29;100.00;101448.78;4986433;28;20328;-57
2022/11/29 04:31:31;;;;;;;102.13;30.13;;;;;;;13.46;100.00;101453.88;4985022;28;20293;-55
2022/11/29 04:34:05;;;;;;;112.03;30.33;;;;;;;13.38;100.00;101462.03;4987770;28;20284;-56
2022/11/29 04:36:47;;;;;;;115.90;31.83;;;;;;;13.31;100.00;101446.72;4983716;28;20337;-55
2022/11/29 04:39:27;;;;;;;168.57;32.77;;;;;;;13.43;100.00;101459.66;4986369;28;20276;-56
2022/11/29 04:42:23;;;;;;;118.63;29.53;;;;;;;13.09;100.00;101453.22;4984177;28;20261;-57
2022/11/29 04:45:36;;;;;;;184.50;33.80;;;;;;;13.58;100.00;101454.94;4990325;28;20269;-57
2022/11/29 04:48:36;;;;;;;104.47;30.67;;;;;;;13.73;100.00;101459.34;4985792;28;20280;-55
2022/11/29 04:51:20;;;;;;;96.47;28.03;;;;;;;13.62;100.00;101468.81;4985926;28;20265;-55
2022/11/29 04:54:24;;;;;;;151.83;31.23;;;;;;;13.06;100.00;101467.88;4992450;28;20269;-55
2022/11/29 04:56:57;;;;;;;133.63;28.53;;;;;;;12.95;100.00;101474.63;4988764;28;20360;-56
2022/11/29 04:59:25;;;;;;;81.70;28.50;;;;;;;13.18;100.00;101477.03;4982100;28;20269;-56
2022/11/29 05:02:30;;;;;;;124.57;30.37;;;;;;;13.19;100.00;101480.56;4992610;28;20261;-58
2022/11/29 05:05:14;;;;;;;178.70;33.57;;;;;;;12.84;100.00;101480.50;4973306;28;20355;-53
2022/11/29 05:08:13;;;;;;;88.40;26.70;;;;;;;12.33;100.00;101491.22;4991719;28;20276;-57
2022/11/29 05:11:02;;;;;;;159.20;30.27;;;;;;;12.64;100.00;101491.91;4982846;28;20268;-56
2022/11/29 05:13:44;;;;;;;118.60;28.53;;;;;;;12.40;100.00;101488.59;4982048;28;20281;-55
2022/11/29 05:16:44;;;;;;;132.10;28.47;;;;;;;12.58;100.00;101495.38;4982883;28;20270;-57
2022/11/29 05:19:36;;;;;;;131.03;30.37;;;;;;;12.47;100.00;101505.59;4991210;28;20272;-56
2022/11/29 05:22:34;;;;;;;104.57;29.23;;;;;;;12.93;100.00;101500.00;4992292;28;20340;-57
2022/11/29 05:25:20;;;;;;;108.75;26.70;;;;;;;12.50;100.00;101514.28;4989552;28;20299;-56
2022/11/29 05:28:01;;;;;;;158.27;30.87;;;;;;;12.43;100.00;101512.34;4989903;28;20093;-56
2022/11/29 05:30:53;;;;;;;117.70;28.00;;;;;;;12.35;100.00;101517.84;4986139;28;20261;-56
2022/11/29 05:33:53;;;;;;;185.43;33.00;;;;;;;12.15;100.00;101528.38;4989986;28;20282;-55
2022/11/29 05:36:28;;;;;;;121.90;29.57;;;;;;;12.39;100.00;101529.84;4985756;28;20272;-57
2022/11/29 05:39:05;;;;;;;109.37;28.63;;;;;;;12.75;100.00;101526.28;4991605;28;20276;-54
2022/11/29 05:41:58;;;;;;;206.03;32.10;;;;;;;12.48;100.00;101523.34;4989414;28;20276;-55
2022/11/29 05:44:35;;;;;;;98.83;26.43;;;;;;;12.80;100.00;101528.41;4987700;28;20265;-56
2022/11/29 05:47:01;;;;;;;;;;;;;;;12.69;100.00;101528.91;4985300;28;20303;-56
2022/11/29 05:49:39;;;;;;;147.53;28.33;;;;;;;12.95;100.00;101533.69;4987997;28;19937;-54
2022/11/29 05:52:30;;;;;;;153.23;30.63;;;;;;;12.64;100.00;101537.53;4988842;28;20268;-54
2022/11/29 05:55:02;;;;;;;128.33;27.17;;;;;;;13.19;100.00;101540.47;4988353;28;20336;-57
2022/11/29 05:57:39;;;;;;;163.40;29.60;;;;;;;13.18;100.00;101538.00;4985508;28;20285;-59
2022/11/29 06:00:06;;;;;;;91.87;26.50;;;;;;;13.51;100.00;101550.81;4988816;28;20303;-57
2022/11/29 06:03:20;;;;;;;98.63;27.87;;;;;;;13.54;100.00;101545.06;4989171;28;20312;-55
2022/11/29 06:05:53;;;;;;;96.57;28.92;;;;;;;13.44;100.00;101552.66;4975315;28;20314;-57
2022/11/29 06:08:33;;;;;;;91.73;26.43;;;;;;;13.25;100.00;101544.22;4989364;28;20047;-58
2022/11/29 06:11:14;;;;;;;120.87;27.03;;;;;;;13.22;100.00;101550.00;4987996;28;20296;-54
2022/11/29 06:14:01;;;;;;;98.90;25.47;;;;;;;13.32;100.00;101555.84;4986356;28;20274;-55
2022/11/29 06:16:38;;;;;;;95.43;26.20;;;;;;;13.34;100.00;101567.22;4985547;28;20279;-57
2022/11/29 06:19:22;;;;;;;109.00;26.80;;;;;;;13.10;100.00;101567.66;4984281;28;20031;-53
2022/11/29 06:22:19;;;;;;;111.50;25.70;;;;;;;12.74;100.00;101569.41;4984881;28;20274;-51
2022/11/29 06:24:51;;;;;;;111.37;26.23;;;;;;;12.39;100.00;101577.31;4988443;28;20288;-55
2022/11/29 06:27:42;;;;;;;100.67;24.07;;;;;;;12.12;100.00;101585.88;4987470;28;20306;-53
2022/11/29 06:30:12;;;;;;;106.07;26.73;;;;;;;13.05;100.00;101587.88;4987750;28;20348;-56
2022/11/29 06:33:08;;;;;;;89.67;26.07;;;;;;;12.64;100.00;101596.56;4987106;28;20287;-56
2022/11/29 06:35:45;;;;;;;84.40;24.53;;;;;;;12.81;100.00;101599.00;4984172;28;20295;-53
2022/11/29 06:38:14;;;;;;;;;;;;;;;12.86;100.00;101592.03;4987294;28;20292;-51
2022/11/29 06:40:40;;;;;;;100.27;24.73;;;;;;;13.05;100.00;101597.78;4987593;28;19918;-53
2022/11/29 06:43:05;;;;;;;145.77;28.92;;;;;;;12.53;100.00;101599.75;4986301;28;20349;-59
2022/11/29 06:45:31;;;;;;;135.70;26.20;;;;;;;12.56;100.00;101600.19;4987663;28;20061;-57
2022/11/29 06:48:02;;;;;;;91.97;23.10;;;;;;;12.73;100.00;101598.13;4988262;28;20043;-57
2022/11/29 06:50:44;;;;;;;89.30;22.53;;;;;;;12.95;100.00;101598.13;4984378;28;20030;-56
2022/11/29 06:53:23;;;;;;;89.83;24.07;;;;;;;12.94;100.00;101596.47;4984867;28;20295;-56
2022/11/29 06:56:05;;;;;;;100.73;25.27;;;;;;;12.87;100.00;101604.44;4985260;28;20320;-56
2022/11/29 06:58:40;;;;;;;100.67;23.83;;;;;;;12.58;100.00;101608.06;4986399;28;20272;-57
2022/11/29 07:01:24;;;;;;;141.00;27.03;;;;;;;12.69;100.00;101615.63;4988675;28;20285;-57
2022/11/29 07:04:20;;;;;;;80.47;24.50;;;;;;;13.25;100.00;101614.06;4985792;28;20276;-56
2022/11/29 07:06:46;;;;;;;75.77;23.23;;;;;;;12.29;100.00;101617.84;4985964;28;20351;-56
2022/11/29 07:09:17;;;;;;;86.45;22.80;;;;;;;12.70;100.00;101622.66;4990501;28;20273;-58
2022/11/29 07:11:45;;;;;;;103.73;21.37;;;;;;;12.98;100.00;101624.56;4987353;28;20039;-56
2022/11/29 07:14:12;;;;;;;76.03;20.97;;;;;;;12.68;100.00;101630.03;4987270;28;20281;-59
2022/11/29 07:17:03;;;;;;;96.60;22.13;;;;;;;12.73;100.00;101634.84;4988077;28;20281;-56
2022/11/29 07:19:42;;;;;;;69.53;19.67;;;;;;;12.30;100.00;101635.59;4988530;28;20333;-58
2022/11/29 07:22:35;;;;;;;89.00;22.17;;;;;;;12.22;100.00;101644.56;4988705;28;20269;-57
2022/11/29 07:25:20;;;;;;;94.00;21.57;;;;;;;12.30;100.00;101641.78;4986897;28;20275;-59
2022/11/29 07:28:23;;;;;;;66.20;19.77;;;;;;;12.34;100.00;101644.94;4987501;28;20272;-57
2022/11/29 07:31:10;;;;;;;78.17;22.30;;;;;;;13.18;100.00;101656.97;4988188;28;20265;-57
2022/11/29 07:33:59;;;;;;;78.53;22.60;;;;;;;13.01;100.00;101666.31;4991711;28;20328;-56
2022/11/29 07:36:36;;;;;;;93.17;23.20;;;;;;;12.51;100.00;101666.19;4991125;28;20061;-57
2022/11/29 07:39:13;;;;;;;114.67;23.60;;;;;;;13.05;100.00;101673.78;4990593;28;20273;-56
2022/11/29 07:41:42;;;;;;;71.93;20.98;;;;;;;12.87;100.00;101676.91;4988785;28;20292;-58
2022/11/29 07:44:23;;;;;;;103.03;21.17;;;;;;;12.72;100.00;101682.34;5019808;28;20049;-58
2022/11/29 07:46:48;;;;;;;78.03;18.63;;;;;;;12.36;100.00;101680.44;4989044;28;20276;-57
2022/11/29 07:49:14;;;;;;;71.10;17.53;;;;;;;12.40;100.00;101681.72;4991077;28;20316;-56
2022/11/29 07:51:39;;;;;;;108.63;20.80;;;;;;;12.58;100.00;101677.81;4991180;28;20027;-55
2022/11/29 07:54:05;;;;;;;82.47;19.05;;;;;;;12.55;100.00;101681.69;4988647;28;20050;-57
2022/11/29 07:56:30;;;;;;;77.00;18.10;;;;;;;13.01;100.00;101677.88;4989078;28;20061;-60
2022/11/29 07:58:56;;;;;;;79.97;18.00;;;;;;;12.58;100.00;101675.13;4988197;28;20043;-57
2022/11/29 08:01:21;;;;;;;57.83;14.65;;;;;;;12.78;100.00;101678.03;4988721;28;20123;-57
2022/11/29 08:03:47;;;;;;;50.97;15.13;;;;;;;13.40;100.00;101680.31;4990716;28;20042;-57
2022/11/29 08:06:12;;;;;;;46.77;15.60;;;;;;;12.76;100.00;101682.78;4992802;28;20269;-56
2022/11/29 08:08:38;;;;;;;59.35;14.88;;;;;;;13.19;100.00;101685.50;4989849;28;20078;-56
2022/11/29 08:11:11;;;;;;;58.30;14.88;;;;;;;13.13;100.00;101688.09;4992174;28;20046;-59
2022/11/29 08:13:37;;;;;;;54.63;16.23;;;;;;;13.05;100.00;101689.91;4989216;28;20076;-57
2022/11/29 08:16:02;;;;;;;51.37;15.17;;;;;;;12.79;100.00;101685.06;4988276;28;20277;-59
2022/11/29 08:18:27;;;;;;;46.77;13.57;;;;;;;12.76;100.00;101686.31;4991828;28;20035;-58
2022/11/29 08:20:53;;;;;;;53.00;13.87;;;;;;;13.13;100.00;101694.31;4989024;28;20066;-57
2022/11/29 08:23:18;;;;;;;54.97;14.30;;;;;;;12.89;100.00;101693.66;4988485;28;20031;-58
2022/11/29 08:25:44;;;;;;;55.77;16.10;;;;;;;13.10;100.00;101701.91;4986978;28;20034;-57
2022/11/29 08:28:10;;;;;;;48.15;14.90;;;;;;;13.10;100.00;101701.91;4988333;28;20106;-56
2022/11/29 08:30:35;;;;;;;55.60;14.80;;;;;;;13.13;100.00;101697.00;4987179;28;20031;-56
2022/11/29 08:33:01;;;;;;;49.47;14.73;;;;;;;13.27;100.00;101707.91;4989524;28;20277;-58
2022/11/29 08:35:26;;;;;;;40.20;15.43;;;;;;;12.96;100.00;101706.31;4990051;28;20098;-56
2022/11/29 08:37:52;;;;;;;50.55;16.42;;;;;;;12.75;100.00;101706.09;4989412;28;20030;-58
2022/11/29 08:40:19;;;;;;;43.67;14.98;;;;;;;13.29;100.00;101706.66;4987703;28;20041;-57
2022/11/29 08:42:44;;;;;;;48.58;15.85;;;;;;;13.56;100.00;101690.78;4991430;28;20046;-58
2022/11/29 08:45:10;;;;;;;46.78;14.05;;;;;;;13.44;100.00;101709.31;4985091;28;20031;-55
2022/11/29 08:47:37;;;;;;;32.70;13.37;;;;;;;13.43;100.00;101712.19;4990658;28;20038;-57
2022/11/29 08:50:14;;;;;;;36.97;11.85;;;;;;;13.33;100.00;101713.31;4990498;28;20382;-57
2022/11/29 08:55:31;;;;;;;30.92;11.10;;;;;;;13.89;100.00;101711.75;4987924;28;20272;-59
2022/11/29 08:58:02;;;;;;;40.83;12.23;;;;;;;14.07;100.00;101721.16;4988855;28;20066;-57
2022/11/29 09:00:27;;;;;;;32.53;12.03;;;;;;;13.97;100.00;101716.13;4985543;28;20349;-57
2022/11/29 09:02:52;;;;;;;33.93;11.67;;;;;;;14.16;100.00;101728.03;4989672;28;20270;-58
2022/11/29 09:05:18;;;;;;;34.80;11.63;;;;;;;14.48;100.00;101725.72;4989318;28;20031;-60
2022/11/29 09:07:45;;;;;;;29.97;10.27;;;;;;;13.73;100.00;101731.69;4998685;28;20058;-57
2022/11/29 09:10:11;;;;;;;35.10;11.50;;;;;;;14.03;100.00;101733.31;4989669;28;20027;-57
2022/11/29 09:12:38;;;;;;;33.05;11.77;;;;;;;13.96;100.00;101730.63;4988161;28;20269;-57
2022/11/29 09:15:05;;;;;;;34.60;10.73;;;;;;;14.22;100.00;101736.34;4985269;28;20035;-59
2022/11/29 09:17:30;;;;;;;36.73;12.90;;;;;;;14.44;100.00;101739.78;4989198;28;20035;-59
2022/11/29 09:19:56;;;;;;;34.60;12.90;;;;;;;14.74;100.00;101743.03;4985746;28;20342;-56
2022/11/29 09:22:21;;;;;;;36.80;12.65;;;;;;;14.88;100.00;101751.19;4988944;28;20127;-57
2022/11/29 09:24:47;;;;;;;33.25;12.50;;;;;;;14.11;100.00;101754.72;4988957;28;20038;-57
2022/11/29 09:27:12;;;;;;;32.13;12.77;;;;;;;14.23;100.00;101764.91;4990489;28;20031;-58
2022/11/29 09:29:38;;;;;;;30.92;12.30;;;;;;;14.34;100.00;101762.50;4988012;28;20042;-58
2022/11/29 09:32:04;;;;;;;43.00;13.03;;;;;;;14.27;100.00;101755.41;4988755;28;20094;-58
2022/11/29 09:34:30;;;;;;;36.47;11.52;;;;;;;14.54;100.00;101759.09;4988376;28;20069;-57
2022/11/29 09:36:55;;;;;;;40.77;12.77;;;;;;;14.19;100.00;101770.69;4989791;28;20035;-58
2022/11/29 09:39:21;;;;;;;32.92;12.65;;;;;;;14.56;100.00;101764.28;4987811;28;20119;-57
2022/11/29 09:42:14;;;;;;;32.00;11.87;;;;;;;13.99;100.00;101772.41;4989407;28;20066;-56
2022/11/29 09:44:54;;;;;;;35.07;11.73;;;;;;;13.92;100.00;101780.41;4989427;28;20273;-57
2022/11/29 09:47:30;;;;;;;35.77;12.03;;;;;;;13.93;100.00;101781.25;4985245;28;20287;-56
2022/11/29 09:50:20;;;;;;;32.83;12.40;;;;;;;14.34;100.00;101775.13;4985107;28;20433;-59
2022/11/29 09:53:02;;;;;;;41.07;12.77;;;;;;;14.12;100.00;101769.81;4986258;28;20294;-55
2022/11/29 09:55:43;;;;;;;36.97;11.77;;;;;;;14.08;100.00;101773.09;4987342;28;20272;-59
2022/11/29 09:58:19;;;;;;;40.33;13.23;;;;;;;13.54;100.00;101778.84;5006763;28;20277;-58
2022/11/29 10:00:49;;;;;;;37.33;13.60;;;;;;;14.05;100.00;101779.69;4990517;28;20289;-59
2022/11/29 10:03:41;;;;;;;44.47;13.07;;;;;;;14.02;100.00;101780.06;4987790;28;20256;-56
2022/11/29 10:06:23;;;;;;;35.77;11.53;;;;;;;14.53;100.00;101781.66;4986973;28;20273;-59
2022/11/29 10:09:03;;;;;;;37.73;13.77;;;;;;;14.29;100.00;101781.09;4988305;28;20276;-57
2022/11/29 10:11:37;;;;;;;33.60;12.27;;;;;;;14.32;100.00;101787.97;4988529;28;20360;-56
2022/11/29 10:14:14;;;;;;;33.80;11.70;;;;;;;14.14;100.00;101788.44;4989033;28;20283;-54
2022/11/29 10:16:51;;;;;;;26.25;10.50;;;;;;;14.82;100.00;101789.69;4989248;28;20304;-57
2022/11/29 10:19:25;;;;;;;34.90;12.07;;;;;;;14.36;100.00;101791.91;5002690;28;20038;-58
2022/11/29 10:22:02;;;;;;;29.37;12.10;;;;;;;14.20;100.00;101785.81;4986636;28;20273;-56
2022/11/29 10:24:30;;;;;;;31.70;11.77;;;;;;;14.37;100.00;101790.88;4985987;28;20269;-56
2022/11/29 10:26:55;;;;;;;33.50;12.17;;;;;;;14.65;100.00;101783.78;4987367;28;20269;-57
2022/11/29 10:29:22;;;;;;;32.67;11.93;;;;;;;14.77;100.00;101793.84;4983688;28;20303;-58
2022/11/29 10:31:53;;;;;;;39.03;11.00;;;;;;;14.91;100.00;101788.47;4989292;28;20045;-58
2022/11/29 10:34:24;;;;;;;29.67;11.10;;;;;;;14.63;100.00;101790.19;4988075;28;20290;-59
2022/11/29 10:36:57;;;;;;;25.07;11.57;;;;;;;15.12;100.00;101790.22;4985848;28;20278;-56
2022/11/29 10:39:35;;;;;;;30.60;10.73;;;;;;;14.97;100.00;101784.97;4986526;28;20277;-56
2022/11/29 10:42:03;;;;;;;33.60;12.37;;;;;;;14.63;100.00;101781.28;4985222;28;20281;-57
2022/11/29 10:44:32;;;;;;;35.47;13.03;;;;;;;14.17;100.00;101783.50;4986014;28;20287;-58
2022/11/29 10:47:00;;;;;;;35.20;12.33;;;;;;;14.48;100.00;101784.94;4988744;28;20283;-58
2022/11/29 10:49:29;;;;;;;37.27;14.23;;;;;;;14.28;100.00;101778.59;4987000;28;20356;-59
2022/11/29 10:51:55;;;;;;;33.73;12.90;;;;;;;14.57;100.00;101777.53;4988039;28;20277;-58
2022/11/29 10:54:41;;;;;;;35.03;13.63;;;;;;;15.24;100.00;101777.00;4987750;28;20294;-57
2022/11/29 10:57:18;;;;;;;40.87;15.00;;;;;;;14.99;100.00;101780.25;4989019;28;20039;-59
2022/11/29 11:00:02;;;;;;;35.97;12.40;;;;;;;15.03;100.00;101781.50;4986038;28;20299;-55
2022/11/29 11:02:29;;;;;;;42.00;14.20;;;;;;;14.57;100.00;101782.09;4985964;28;20282;-55
2022/11/29 11:04:55;;;;;;;33.43;12.47;;;;;;;14.34;100.00;101783.22;4983543;28;20268;-57
2022/11/29 11:07:22;;;;;;;32.10;12.98;;;;;;;14.34;100.00;101793.97;4989576;28;20326;-58
2022/11/29 11:09:51;;;;;;;42.10;13.90;;;;;;;14.29;100.00;101791.88;4989394;28;20030;-55
2022/11/29 11:12:22;;;;;;;27.93;11.73;;;;;;;14.49;100.00;101783.09;4991667;28;20275;-58
2022/11/29 11:14:50;;;;;;;37.43;14.30;;;;;;;14.08;100.00;101787.38;4989831;28;20287;-56
2022/11/29 11:17:28;;;;;;;34.50;14.47;;;;;;;14.34;100.00;101793.97;4990056;28;20261;-57
2022/11/29 11:19:54;;;;;;;41.07;13.87;;;;;;;14.47;100.00;101796.72;4989467;28;20310;-59
2022/11/29 11:22:22;;;;;;;31.58;13.18;;;;;;;14.62;100.00;101790.41;4987179;28;20277;-56
2022/11/29 11:24:57;;;;;;;34.37;13.57;;;;;;;14.49;100.00;101791.97;4990743;28;20042;-54
2022/11/29 11:27:34;;;;;;;42.00;13.50;;;;;;;14.86;100.00;101794.47;4993011;28;20273;-55
2022/11/29 11:30:00;;;;;;;;;;;;;;;14.89;100.00;101785.16;4992341;28;20287;-54
2022/11/29 11:32:25;;;;;;;37.77;13.57;;;;;;;14.98;100.00;101788.50;4988668;28;19914;-52
2022/11/29 11:34:56;;;;;;;41.70;13.80;;;;;;;15.37;100.00;101796.91;4991938;28;20296;-57
2022/11/29 11:37:25;;;;;;;36.57;14.90;;;;;;;15.34;100.00;101806.25;4992551;28;20038;-54
2022/11/29 11:39:54;;;;;;;44.57;14.93;;;;;;;15.46;100.00;101803.78;4991028;28;20760;-54